Time;durP1;ratioP1;P1;durP2;ratioP2;P2;SDS_P1;SDS_P2;PMS_P1;PMS_P2;Temp;Humidity;BMP_temperature;BMP_pressure;BME280_temperature;BME280_humidity;BME280_pressure;Samples;Min_cycle;Max_cycle;Signal;HPM_P1;HPM_P2
2023/09/06 00:00:29;;;;;;;5.55;4.80;;;;;;;;;;4970393;29;20034;-81
2023/09/06 00:02:59;;;;;;;5.07;4.57;;;;;;;;;;4970071;29;20049;-83
2023/09/06 00:05:25;;;;;;;7.10;5.07;;;;;;;;;;4954861;29;20058;-82
2023/09/06 00:07:53;;;;;;;9.63;5.30;;;;;;;;;;4954857;29;20035;-84
2023/09/06 00:10:19;;;;;;;9.57;4.90;;;;;;;;;;4939423;29;20110;-83
2023/09/06 00:12:46;;;;;;;6.40;5.30;;;;;;;;;;4953625;29;20166;-83
2023/09/06 00:15:15;;;;;;;7.25;4.70;;;;;;;;;;4965335;29;20050;-84
2023/09/06 00:17:41;;;;;;;16.58;5.47;;;;;;;;;;4932568;29;20042;-83
2023/09/06 00:20:29;;;;;;;7.72;5.30;;;;;;;;;;4961045;29;20035;-82
2023/09/06 00:22:55;;;;;;;8.20;4.95;;;;;;;;;;4939865;29;20053;-82
2023/09/06 00:25:21;;;;;;;7.93;5.15;;;;;;;;;;4923147;29;20082;-83
2023/09/06 00:27:49;;;;;;;5.40;4.90;;;;;;;;;;4937851;29;20122;-82
2023/09/06 00:30:19;;;;;;;18.77;5.80;;;;;;;;;;4947368;29;20051;-83
2023/09/06 00:32:46;;;;;;;8.13;5.18;;;;;;;;;;4932968;29;20050;-81
2023/09/06 00:35:12;;;;;;;5.57;4.90;;;;;;;;;;4947907;29;20038;-81
2023/09/06 00:37:40;;;;;;;9.23;5.10;;;;;;;;;;4968468;29;20043;-81
2023/09/06 00:40:17;;;;;;;10.18;4.97;;;;;;;;;;4949059;29;20063;-82
2023/09/06 00:42:46;;;;;;;6.10;5.05;;;;;;;;;;4934403;29;20043;-82
2023/09/06 00:45:12;;;;;;;7.57;4.88;;;;;;;;;;4934744;29;20050;-83
2023/09/06 00:47:39;;;;;;;9.02;5.40;;;;;;;;;;4972116;29;20043;-83
2023/09/06 00:50:05;;;;;;;7.55;4.90;;;;;;;;;;4939258;29;20057;-82
2023/09/06 00:52:31;;;;;;;6.78;5.10;;;;;;;;;;4951960;28;20043;-82
2023/09/06 00:55:01;;;;;;;5.55;5.03;;;;;;;;;;4960757;28;20130;-83
2023/09/06 00:57:29;;;;;;;11.63;4.77;;;;;;;;;;4974087;28;20050;-81
2023/09/06 00:59:58;;;;;;;8.05;5.20;;;;;;;;;;4981987;28;20097;-82
2023/09/06 01:02:26;;;;;;;7.30;5.03;;;;;;;;;;4981656;28;20034;-79
2023/09/06 01:04:53;;;;;;;8.05;4.45;;;;;;;;;;4964521;28;20082;-84
2023/09/06 01:07:21;;;;;;;9.65;4.82;;;;;;;;;;4984057;28;20455;-82
2023/09/06 01:09:47;;;;;;;10.18;5.05;;;;;;;;;;4966443;28;20050;-83
2023/09/06 01:12:13;;;;;;;5.60;4.90;;;;;;;;;;4964766;28;20090;-82
2023/09/06 01:14:40;;;;;;;6.40;5.20;;;;;;;;;;4964981;28;20069;-83
2023/09/06 01:17:07;;;;;;;6.78;4.78;;;;;;;;;;4983568;28;20125;-81
2023/09/06 01:19:33;;;;;;;5.75;4.68;;;;;;;;;;4982690;28;20050;-81
2023/09/06 01:21:59;;;;;;;9.65;5.05;;;;;;;;;;4951443;28;20129;-82
2023/09/06 01:24:28;;;;;;;6.72;5.55;;;;;;;;;;4985309;28;20533;-82
2023/09/06 01:26:54;;;;;;;6.10;4.97;;;;;;;;;;4986913;28;20066;-83
2023/09/06 01:29:20;;;;;;;10.18;5.80;;;;;;;;;;4979166;28;20106;-82
2023/09/06 01:31:46;;;;;;;9.55;5.32;;;;;;;;;;4960557;28;20031;-83
2023/09/06 01:34:12;;;;;;;11.73;5.30;;;;;;;;;;4995360;28;20258;-84
2023/09/06 01:36:38;;;;;;;9.77;5.50;;;;;;;;;;4978998;28;20034;-84
2023/09/06 01:39:08;;;;;;;9.88;4.93;;;;;;;;;;4982447;28;20114;-81
2023/09/06 01:41:35;;;;;;;6.28;5.28;;;;;;;;;;4975731;28;20034;-82
2023/09/06 01:44:04;;;;;;;12.93;5.70;;;;;;;;;;4959643;28;20073;-80
2023/09/06 01:46:30;;;;;;;6.75;5.25;;;;;;;;;;4963027;28;20186;-81
2023/09/06 01:48:59;;;;;;;7.63;4.80;;;;;;;;;;4983341;28;20043;-84
2023/09/06 01:51:25;;;;;;;6.28;5.68;;;;;;;;;;4996105;28;20125;-82
2023/09/06 01:53:51;;;;;;;8.35;4.97;;;;;;;;;;4975217;29;20047;-82
2023/09/06 01:56:18;;;;;;;7.32;4.90;;;;;;;;;;4972960;29;20019;-83
2023/09/06 01:58:46;;;;;;;7.28;5.40;;;;;;;;;;4993484;28;20059;-81
2023/09/06 02:01:12;;;;;;;5.35;4.88;;;;;;;;;;4962237;29;20042;-83
2023/09/06 02:03:38;;;;;;;8.18;5.25;;;;;;;;;;4978244;29;20035;-83
2023/09/06 02:06:04;;;;;;;10.38;5.32;;;;;;;;;;4978290;28;20019;-80
2023/09/06 02:08:31;;;;;;;5.60;5.00;;;;;;;;;;4993390;28;20058;-83
2023/09/06 02:10:57;;;;;;;8.82;5.35;;;;;;;;;;4977732;29;20054;-83
2023/09/06 02:13:23;;;;;;;8.15;5.63;;;;;;;;;;4972018;28;20574;-83
2023/09/06 02:15:51;;;;;;;6.57;5.22;;;;;;;;;;4981917;28;20087;-84
2023/09/06 02:18:17;;;;;;;6.20;5.07;;;;;;;;;;4968011;28;20046;-83
2023/09/06 02:20:44;;;;;;;11.57;4.93;;;;;;;;;;4966799;29;20130;-83
2023/09/06 02:23:10;;;;;;;5.95;5.32;;;;;;;;;;4982426;28;20130;-83
2023/09/06 02:25:36;;;;;;;13.38;5.57;;;;;;;;;;4980350;28;20071;-83
2023/09/06 02:28:07;;;;;;;5.82;5.32;;;;;;;;;;4968714;28;20031;-82
2023/09/06 02:30:33;;;;;;;;;;;;;;;;;;4952277;29;20134;-83
2023/09/06 02:33:00;;;;;;;5.65;4.88;;;;;;;;;;4969810;28;19953;-83
2023/09/06 02:35:27;;;;;;;7.90;4.97;;;;;;;;;;4968131;29;20063;-82
2023/09/06 02:37:53;;;;;;;8.20;5.10;;;;;;;;;;4968207;29;20047;-83
2023/09/06 02:40:20;;;;;;;5.90;5.30;;;;;;;;;;4972628;29;20091;-84
2023/09/06 02:42:51;;;;;;;6.22;5.00;;;;;;;;;;4959205;29;20058;-83
2023/09/06 02:45:17;;;;;;;8.07;5.30;;;;;;;;;;4970216;29;20038;-81
2023/09/06 02:47:50;;;;;;;6.45;5.95;;;;;;;;;;4964866;29;20059;-83
2023/09/06 02:50:22;;;;;;;6.47;5.82;;;;;;;;;;4978814;28;20058;-82
2023/09/06 02:52:50;;;;;;;6.53;5.25;;;;;;;;;;4962252;28;20055;-83
2023/09/06 02:55:17;;;;;;;6.95;6.18;;;;;;;;;;4983963;28;20039;-82
2023/09/06 02:57:43;;;;;;;10.05;5.30;;;;;;;;;;4974940;29;20035;-85
2023/09/06 03:00:25;;;;;;;6.80;5.10;;;;;;;;;;4974632;28;20096;-82
2023/09/06 03:19:48;;;;;;;7.13;4.70;;;;;;;;;;5990727;23;20021;-84
2023/09/06 03:22:15;;;;;;;6.38;4.75;;;;;;;;;;5630716;23;20046;-85
2023/09/06 03:24:43;;;;;;;6.65;5.22;;;;;;;;;;5001567;28;20027;-88
2023/09/06 03:27:10;;;;;;;5.13;4.55;;;;;;;;;;5001640;28;20053;-84
2023/09/06 03:29:36;;;;;;;5.05;4.32;;;;;;;;;;5001681;28;20034;-87
2023/09/06 03:32:09;;;;;;;6.63;4.50;;;;;;;;;;5018182;28;20025;-88
2023/09/06 03:34:37;;;;;;;6.38;4.65;;;;;;;;;;5002147;28;20054;-85
2023/09/06 03:37:05;;;;;;;8.15;4.80;;;;;;;;;;5017333;28;20074;-84
2023/09/06 03:39:32;;;;;;;9.57;4.43;;;;;;;;;;4984520;28;20046;-83
2023/09/06 03:42:00;;;;;;;5.57;5.07;;;;;;;;;;5018016;28;20022;-86
2023/09/06 03:44:27;;;;;;;4.97;4.55;;;;;;;;;;5001277;28;20026;-86
2023/09/06 03:46:56;;;;;;;6.10;4.25;;;;;;;;;;4999482;28;20101;-85
2023/09/06 03:49:23;;;;;;;5.15;3.40;;;;;;;;;;5005896;28;20053;-83
2023/09/06 03:51:50;;;;;;;4.47;4.07;;;;;;;;;;4987878;28;20038;-83
2023/09/06 03:54:18;;;;;;;4.88;4.47;;;;;;;;;;5008967;28;20038;-85
2023/09/06 03:56:44;;;;;;;5.75;4.85;;;;;;;;;;5012730;28;20037;-87
2023/09/06 03:59:11;;;;;;;4.43;4.03;;;;;;;;;;5001156;28;20073;-86
2023/09/06 04:01:37;;;;;;;5.38;4.43;;;;;;;;;;5017529;28;20022;-86
2023/09/06 04:04:04;;;;;;;4.95;4.32;;;;;;;;;;4984535;28;20038;-85
2023/09/06 04:09:32;;;;;;;6.05;4.00;;;;;;;;;;5340587;23;20262;-84
2023/09/06 04:12:03;;;;;;;5.18;4.70;;;;;;;;;;5002717;28;20022;-87
2023/09/06 04:14:29;;;;;;;10.35;4.20;;;;;;;;;;4984632;28;20046;-84
2023/09/06 04:16:55;;;;;;;4.45;4.15;;;;;;;;;;5016930;28;20034;-85
2023/09/06 04:19:21;;;;;;;7.40;4.50;;;;;;;;;;5000908;28;20034;-88
2023/09/06 04:21:48;;;;;;;6.03;4.38;;;;;;;;;;5000646;28;20050;-84
2023/09/06 04:24:20;;;;;;;5.05;4.55;;;;;;;;;;5017120;28;20014;-88
2023/09/06 04:26:47;;;;;;;5.30;4.75;;;;;;;;;;4968055;28;20046;-85
2023/09/06 04:29:14;;;;;;;7.20;4.90;;;;;;;;;;4991964;28;20037;-85
2023/09/06 04:31:41;;;;;;;5.53;4.65;;;;;;;;;;4982613;28;20039;-88
2023/09/06 04:34:08;;;;;;;6.30;4.53;;;;;;;;;;4998999;28;20072;-87
2023/09/06 04:36:36;;;;;;;17.13;5.28;;;;;;;;;;4979999;28;20031;-85
2023/09/06 04:39:07;;;;;;;5.20;4.70;;;;;;;;;;4982547;28;20023;-85
2023/09/06 04:41:36;;;;;;;4.45;3.83;;;;;;;;;;4984913;28;20022;-87
2023/09/06 05:01:01;;;;;;;6.07;4.63;;;;;;;;;;5365066;23;20031;-87
2023/09/06 05:03:27;;;;;;;4.35;3.95;;;;;;;;;;4986265;28;20037;-80
2023/09/06 05:05:54;;;;;;;5.65;4.60;;;;;;;;;;4981458;28;20089;-83
2023/09/06 05:08:22;;;;;;;4.78;4.18;;;;;;;;;;4963162;28;20035;-83
2023/09/06 05:10:50;;;;;;;6.93;4.40;;;;;;;;;;4950734;28;20107;-82
2023/09/06 05:13:16;;;;;;;7.60;4.38;;;;;;;;;;4960108;28;20046;-82
2023/09/06 05:15:43;;;;;;;7.35;4.32;;;;;;;;;;4945756;28;20050;-82
2023/09/06 05:18:10;;;;;;;9.13;4.57;;;;;;;;;;4927904;28;20109;-83
2023/09/06 05:20:38;;;;;;;5.38;4.22;;;;;;;;;;4959252;28;20038;-82
2023/09/06 05:23:12;;;;;;;7.50;4.43;;;;;;;;;;4962366;28;20039;-82
2023/09/06 05:25:39;;;;;;;6.43;4.28;;;;;;;;;;4964742;28;20039;-82
2023/09/06 05:28:08;;;;;;;4.40;4.03;;;;;;;;;;4941122;28;20027;-72
2023/09/06 05:30:38;;;;;;;6.15;4.22;;;;;;;;;;4971069;28;20161;-72
2023/09/06 05:33:05;;;;;;;;;;;;;;;;;;4957160;28;20031;-71
2023/09/06 05:35:31;;;;;;;9.65;4.70;;;;;;;;;;4974942;28;19914;-73
2023/09/06 05:37:57;;;;;;;8.43;4.53;;;;;;;;;;4955798;28;20061;-72
2023/09/06 05:40:23;;;;;;;6.20;4.28;;;;;;;;;;4954420;28;20042;-72
2023/09/06 05:42:53;;;;;;;8.82;4.80;;;;;;;;;;4955147;28;20432;-71
2023/09/06 05:45:21;;;;;;;9.63;4.50;;;;;;;;;;4971066;28;20042;-72
2023/09/06 05:47:48;;;;;;;5.10;4.47;;;;;;;;;;4939344;28;20491;-71
2023/09/06 05:50:15;;;;;;;8.43;4.65;;;;;;;;;;4972183;28;20459;-72
2023/09/06 05:52:41;;;;;;;6.50;4.40;;;;;;;;;;4972600;28;20065;-72
2023/09/06 05:55:08;;;;;;;5.97;3.88;;;;;;;;;;4955033;28;20043;-74
2023/09/06 05:57:34;;;;;;;5.68;4.15;;;;;;;;;;4972358;28;20059;-74
2023/09/06 06:00:04;;;;;;;4.35;3.95;;;;;;;;;;4936058;29;20059;-75
2023/09/06 06:02:39;;;;;;;3.85;3.30;;;;;;;;;;4953568;28;20047;-74
2023/09/06 06:05:07;;;;;;;5.50;3.58;;;;;;;;;;4935161;29;20039;-75
2023/09/06 06:07:32;;;;;;;8.20;3.70;;;;;;;;;;4953023;28;20500;-72
2023/09/06 06:09:58;;;;;;;5.35;4.15;;;;;;;;;;4952978;28;20047;-73
2023/09/06 06:12:24;;;;;;;5.50;4.03;;;;;;;;;;4952667;28;20483;-73
2023/09/06 06:14:51;;;;;;;10.38;2.97;;;;;;;;;;4953013;28;20046;-73
2023/09/06 06:17:17;;;;;;;7.95;4.00;;;;;;;;;;4952732;28;20042;-72
2023/09/06 06:19:44;;;;;;;10.00;3.95;;;;;;;;;;4951328;29;20508;-72
2023/09/06 06:22:09;;;;;;;13.73;4.93;;;;;;;;;;4952477;28;20035;-72
2023/09/06 06:24:36;;;;;;;12.68;4.35;;;;;;;;;;4951333;29;20039;-73
2023/09/06 06:27:01;;;;;;;8.07;3.92;;;;;;;;;;4951117;29;20065;-70
2023/09/06 06:29:28;;;;;;;9.25;3.90;;;;;;;;;;4951574;28;20054;-73
2023/09/06 06:31:55;;;;;;;9.68;3.63;;;;;;;;;;4970649;28;20034;-70
2023/09/06 06:34:21;;;;;;;10.75;3.78;;;;;;;;;;4971608;28;20050;-71
2023/09/06 06:36:48;;;;;;;5.97;3.97;;;;;;;;;;4970801;28;20031;-73
2023/09/06 06:39:14;;;;;;;11.52;4.00;;;;;;;;;;4954391;28;20043;-72
2023/09/06 06:41:40;;;;;;;6.32;3.40;;;;;;;;;;4954190;28;20034;-75
2023/09/06 06:44:08;;;;;;;5.78;3.58;;;;;;;;;;4955576;28;20041;-77
2023/09/06 06:46:35;;;;;;;6.70;3.65;;;;;;;;;;4971750;28;20042;-80
2023/09/06 06:49:04;;;;;;;12.05;4.18;;;;;;;;;;4938600;28;20058;-77
2023/09/06 06:51:34;;;;;;;8.65;3.92;;;;;;;;;;4971231;28;20089;-76
2023/09/06 06:54:07;;;;;;;5.47;4.05;;;;;;;;;;4955328;28;20130;-78
2023/09/06 06:56:36;;;;;;;4.57;3.70;;;;;;;;;;4972654;28;20118;-79
2023/09/06 06:59:03;;;;;;;4.65;4.18;;;;;;;;;;4970418;28;20042;-79
2023/09/06 07:01:30;;;;;;;13.10;4.15;;;;;;;;;;4970234;28;20579;-78
2023/09/06 07:03:57;;;;;;;5.68;4.07;;;;;;;;;;4970309;28;20368;-78
2023/09/06 07:06:23;;;;;;;4.70;4.10;;;;;;;;;;4953827;28;20042;-77
2023/09/06 07:08:49;;;;;;;7.07;4.18;;;;;;;;;;4971797;28;20071;-79
2023/09/06 07:11:16;;;;;;;8.68;4.00;;;;;;;;;;4971353;28;20031;-79
2023/09/06 07:13:42;;;;;;;5.10;3.63;;;;;;;;;;4971725;28;20043;-80
2023/09/06 07:16:09;;;;;;;6.70;3.65;;;;;;;;;;4970116;28;20041;-79
2023/09/06 07:18:38;;;;;;;7.63;4.30;;;;;;;;;;4954702;28;20039;-80
2023/09/06 07:21:04;;;;;;;4.05;3.45;;;;;;;;;;4954474;28;20034;-75
2023/09/06 07:23:31;;;;;;;3.97;3.35;;;;;;;;;;4960863;28;20039;-77
2023/09/06 07:25:57;;;;;;;8.20;4.00;;;;;;;;;;4951983;28;20586;-78
2023/09/06 07:28:23;;;;;;;4.63;3.42;;;;;;;;;;4959750;28;20046;-80
2023/09/06 07:30:49;;;;;;;5.15;3.25;;;;;;;;;;4953615;28;20058;-80
2023/09/06 07:33:15;;;;;;;9.88;4.43;;;;;;;;;;4971396;28;20042;-79
2023/09/06 07:35:42;;;;;;;12.48;4.00;;;;;;;;;;4971194;28;20045;-78
2023/09/06 07:38:08;;;;;;;9.07;3.60;;;;;;;;;;4970994;28;20419;-78
2023/09/06 07:40:34;;;;;;;3.55;3.13;;;;;;;;;;4971085;28;20126;-78
2023/09/06 07:43:00;;;;;;;7.45;3.55;;;;;;;;;;4971221;28;20499;-80
2023/09/06 07:45:26;;;;;;;5.70;3.92;;;;;;;;;;4970828;28;20041;-78
2023/09/06 07:47:52;;;;;;;7.22;3.75;;;;;;;;;;4970163;28;20074;-80
2023/09/06 07:50:19;;;;;;;8.57;3.40;;;;;;;;;;4953410;28;20716;-80
2023/09/06 07:52:45;;;;;;;4.53;3.40;;;;;;;;;;4971556;28;20217;-78
2023/09/06 07:55:13;;;;;;;5.40;3.28;;;;;;;;;;4969846;28;20035;-79
2023/09/06 07:57:39;;;;;;;3.60;3.30;;;;;;;;;;4971552;28;20137;-80
2023/09/06 08:00:05;;;;;;;3.30;2.90;;;;;;;;;;4977767;28;20057;-82
2023/09/06 08:02:39;;;;;;;4.57;2.75;;;;;;;;;;4992115;28;20045;-82
2023/09/06 08:05:05;;;;;;;7.22;3.40;;;;;;;;;;4999085;28;20042;-81
2023/09/06 08:07:32;;;;;;;8.77;2.88;;;;;;;;;;4981270;28;20069;-82
2023/09/06 08:10:01;;;;;;;2.63;2.42;;;;;;;;;;4966045;28;20042;-81
2023/09/06 08:12:29;;;;;;;3.60;2.92;;;;;;;;;;4996320;28;20124;-80
2023/09/06 08:14:55;;;;;;;10.45;3.60;;;;;;;;;;4980807;28;20044;-81
2023/09/06 08:17:21;;;;;;;7.93;3.50;;;;;;;;;;4981502;28;20034;-81
2023/09/06 08:19:48;;;;;;;4.68;3.10;;;;;;;;;;4980928;28;20046;-80
2023/09/06 08:22:14;;;;;;;8.57;3.20;;;;;;;;;;4997165;28;20042;-79
2023/09/06 08:24:40;;;;;;;6.13;3.35;;;;;;;;;;4961986;28;20120;-79
2023/09/06 08:27:06;;;;;;;4.68;3.25;;;;;;;;;;4966978;28;20039;-77
2023/09/06 08:29:32;;;;;;;6.22;3.15;;;;;;;;;;4944678;28;20050;-79
2023/09/06 08:31:58;;;;;;;4.93;3.20;;;;;;;;;;4960729;28;20050;-79
2023/09/06 08:34:24;;;;;;;3.10;2.90;;;;;;;;;;4976731;28;20517;-79
2023/09/06 08:36:51;;;;;;;5.30;3.03;;;;;;;;;;4950379;28;20066;-80
2023/09/06 08:39:17;;;;;;;2.85;2.63;;;;;;;;;;4944162;28;20446;-69
2023/09/06 08:41:44;;;;;;;2.47;2.30;;;;;;;;;;4977144;28;20046;-69
2023/09/06 08:44:11;;;;;;;6.00;3.20;;;;;;;;;;4977142;28;20065;-70
2023/09/06 08:46:41;;;;;;;3.53;3.33;;;;;;;;;;4977048;28;20031;-70
2023/09/06 08:49:07;;;;;;;4.25;3.13;;;;;;;;;;4977473;28;20519;-69
2023/09/06 08:51:36;;;;;;;4.65;3.10;;;;;;;;;;4977767;28;20121;-70
2023/09/06 08:54:05;;;;;;;3.10;2.42;;;;;;;;;;4960079;28;20585;-70
2023/09/06 08:56:32;;;;;;;6.13;3.00;;;;;;;;;;4976064;28;20049;-70
2023/09/06 08:58:59;;;;;;;3.67;2.58;;;;;;;;;;4977045;28;20033;-70
2023/09/06 09:01:25;;;;;;;4.45;2.72;;;;;;;;;;4959853;28;20450;-70
2023/09/06 09:03:51;;;;;;;4.72;3.08;;;;;;;;;;4976435;28;20043;-69
2023/09/06 09:06:17;;;;;;;6.43;3.08;;;;;;;;;;4976868;28;20454;-69
2023/09/06 09:08:43;;;;;;;3.28;2.67;;;;;;;;;;4976597;28;20097;-70
2023/09/06 09:11:13;;;;;;;2.75;2.55;;;;;;;;;;4976969;28;20045;-69
2023/09/06 09:13:40;;;;;;;3.08;2.88;;;;;;;;;;4977128;28;20086;-69
2023/09/06 09:16:09;;;;;;;2.78;2.53;;;;;;;;;;4939697;28;20066;-69
2023/09/06 09:18:39;;;;;;;10.55;2.47;;;;;;;;;;4956571;28;20043;-69
2023/09/06 09:21:07;;;;;;;;;;;;;;;;;;4973551;28;20069;-69
2023/09/06 09:23:40;;;;;;;9.35;2.50;;;;;;;;;;4973429;28;19914;-69
2023/09/06 09:26:06;;;;;;;5.07;2.55;;;;;;;;;;4957006;28;20495;-69
2023/09/06 09:28:33;;;;;;;3.17;2.70;;;;;;;;;;4940319;28;20031;-69
2023/09/06 09:30:59;;;;;;;4.85;2.63;;;;;;;;;;4969640;28;20126;-70
2023/09/06 09:33:29;;;;;;;3.45;2.15;;;;;;;;;;4971168;28;20111;-69
2023/09/06 09:35:58;;;;;;;3.72;2.35;;;;;;;;;;4955330;28;20027;-68
2023/09/06 09:38:24;;;;;;;5.30;2.70;;;;;;;;;;4939926;29;20074;-69
2023/09/06 09:41:03;;;;;;;5.72;2.40;;;;;;;;;;4952343;28;20065;-68
2023/09/06 09:43:29;;;;;;;6.03;2.53;;;;;;;;;;4972398;28;20051;-69
2023/09/06 09:45:55;;;;;;;21.13;3.35;;;;;;;;;;4972446;28;20430;-70
2023/09/06 09:48:21;;;;;;;3.72;2.50;;;;;;;;;;4972278;28;20074;-69
2023/09/06 09:50:47;;;;;;;5.22;2.40;;;;;;;;;;4971873;28;20030;-69
2023/09/06 09:53:13;;;;;;;10.73;3.03;;;;;;;;;;4943732;28;20130;-71
2023/09/06 09:55:40;;;;;;;3.13;2.80;;;;;;;;;;4971780;28;20038;-71
2023/09/06 09:58:08;;;;;;;3.38;2.97;;;;;;;;;;4972742;28;20499;-70
2023/09/06 10:00:38;;;;;;;5.18;2.30;;;;;;;;;;4954837;28;20078;-69
2023/09/06 10:03:07;;;;;;;6.18;2.50;;;;;;;;;;4972318;28;20590;-71
2023/09/06 10:05:33;;;;;;;2.83;2.30;;;;;;;;;;4935604;29;20131;-69
2023/09/06 10:07:59;;;;;;;2.55;2.30;;;;;;;;;;4955179;28;20146;-70
2023/09/06 10:10:25;;;;;;;5.63;2.33;;;;;;;;;;4955106;28;20074;-70
2023/09/06 10:12:52;;;;;;;3.78;2.60;;;;;;;;;;4973137;28;20042;-70
2023/09/06 10:15:23;;;;;;;8.32;2.40;;;;;;;;;;4955375;28;20062;-70
2023/09/06 10:17:56;;;;;;;1.85;1.60;;;;;;;;;;4972046;28;20077;-70
2023/09/06 10:20:23;;;;;;;3.70;2.40;;;;;;;;;;4955080;28;20574;-70
2023/09/06 10:22:52;;;;;;;3.50;1.88;;;;;;;;;;4955301;28;20093;-70
2023/09/06 10:25:17;;;;;;;3.95;2.40;;;;;;;;;;4955071;28;20034;-70
2023/09/06 10:27:48;;;;;;;4.85;2.33;;;;;;;;;;4972239;28;20046;-70
2023/09/06 10:30:18;;;;;;;2.33;1.98;;;;;;;;;;4972644;28;20046;-70
2023/09/06 10:32:45;;;;;;;2.83;2.10;;;;;;;;;;4955199;28;20042;-70
2023/09/06 10:35:21;;;;;;;2.53;2.33;;;;;;;;;;4955246;28;20530;-70
2023/09/06 10:38:04;;;;;;;2.50;2.30;;;;;;;;;;4954712;28;20038;-70
2023/09/06 10:40:51;;;;;;;4.78;2.40;;;;;;;;;;4971919;28;20074;-70
2023/09/06 10:43:20;;;;;;;3.03;2.05;;;;;;;;;;4972117;28;20049;-70
2023/09/06 10:46:26;;;;;;;6.00;2.38;;;;;;;;;;4971843;28;20118;-70
2023/09/06 10:49:14;;;;;;;2.25;2.10;;;;;;;;;;4971817;28;20053;-70
2023/09/06 10:51:56;;;;;;;2.25;2.15;;;;;;;;;;4971916;28;20030;-70
2023/09/06 10:54:34;;;;;;;2.88;2.30;;;;;;;;;;4971672;28;20047;-70
2023/09/06 10:57:18;;;;;;;2.00;1.90;;;;;;;;;;4971751;28;20031;-70
2023/09/06 11:00:01;;;;;;;2.70;2.42;;;;;;;;;;4971579;28;20091;-70
2023/09/06 11:02:32;;;;;;;2.22;2.13;;;;;;;;;;4954944;28;20034;-70
2023/09/06 11:05:05;;;;;;;3.97;2.10;;;;;;;;;;4954496;28;20503;-70
2023/09/06 11:07:44;;;;;;;4.75;2.50;;;;;;;;;;4938365;28;20247;-70
2023/09/06 11:10:10;;;;;;;3.25;2.10;;;;;;;;;;4934997;29;20548;-69
2023/09/06 11:12:37;;;;;;;2.92;2.33;;;;;;;;;;4962627;28;20045;-71
2023/09/06 11:15:05;;;;;;;5.38;2.25;;;;;;;;;;4954335;28;20041;-70
2023/09/06 11:17:33;;;;;;;4.83;2.10;;;;;;;;;;4954086;28;20035;-69
2023/09/06 11:20:16;;;;;;;3.53;2.40;;;;;;;;;;4954166;28;20451;-70
2023/09/06 11:22:48;;;;;;;17.95;4.82;;;;;;;;;;4954042;28;20042;-70
2023/09/06 11:25:15;;;;;;;12.30;2.88;;;;;;;;;;4971359;28;20030;-70
2023/09/06 11:27:41;;;;;;;4.25;1.90;;;;;;;;;;4971224;28;20049;-70
2023/09/06 11:30:10;;;;;;;5.43;2.83;;;;;;;;;;4971140;28;20046;-70
2023/09/06 11:32:37;;;;;;;3.77;2.03;;;;;;;;;;4970853;28;20739;-70
2023/09/06 11:35:05;;;;;;;4.90;2.33;;;;;;;;;;4934909;29;20043;-70
2023/09/06 11:37:32;;;;;;;3.08;2.08;;;;;;;;;;4951973;28;20038;-70
2023/09/06 11:39:59;;;;;;;6.53;2.20;;;;;;;;;;4953826;28;20035;-70
2023/09/06 11:42:28;;;;;;;4.13;1.88;;;;;;;;;;4971067;28;20044;-70
2023/09/06 11:44:55;;;;;;;2.55;2.45;;;;;;;;;;4954773;28;20586;-70
2023/09/06 11:47:23;;;;;;;4.00;2.22;;;;;;;;;;4970982;28;20125;-70
2023/09/06 11:49:49;;;;;;;4.05;2.13;;;;;;;;;;4918748;29;20043;-69
2023/09/06 11:52:16;;;;;;;5.35;2.17;;;;;;;;;;4970531;28;20045;-70
2023/09/06 11:54:44;;;;;;;2.38;2.13;;;;;;;;;;4971017;28;20035;-70
2023/09/06 11:57:18;;;;;;;3.92;2.60;;;;;;;;;;4970852;28;20061;-70
2023/09/06 11:59:43;;;;;;;2.30;2.20;;;;;;;;;;4953447;28;20043;-70
2023/09/06 12:02:13;;;;;;;2.85;2.55;;;;;;;;;;4953560;28;20039;-70
2023/09/06 12:04:40;;;;;;;3.05;2.85;;;;;;;;;;4970547;28;20038;-70
2023/09/06 12:07:07;;;;;;;3.05;2.65;;;;;;;;;;4970801;28;20035;-69
2023/09/06 12:09:36;;;;;;;2.45;2.33;;;;;;;;;;4953054;28;20043;-70
2023/09/06 12:12:04;;;;;;;5.90;2.10;;;;;;;;;;4934247;29;20042;-70
2023/09/06 12:14:31;;;;;;;4.53;2.55;;;;;;;;;;4949305;28;20419;-70
2023/09/06 12:16:57;;;;;;;3.60;2.20;;;;;;;;;;4934618;29;20041;-71
2023/09/06 12:19:23;;;;;;;2.00;1.90;;;;;;;;;;4949309;28;20126;-70
2023/09/06 12:21:49;;;;;;;5.10;2.20;;;;;;;;;;4953306;28;20117;-69
2023/09/06 12:24:15;;;;;;;2.28;2.08;;;;;;;;;;4970925;28;20529;-69
2023/09/06 12:26:41;;;;;;;2.33;2.13;;;;;;;;;;4953160;28;20062;-70
2023/09/06 12:29:07;;;;;;;5.85;2.25;;;;;;;;;;4952670;28;20400;-69
2023/09/06 12:31:36;;;;;;;4.18;1.88;;;;;;;;;;4951931;28;20039;-70
2023/09/06 12:34:03;;;;;;;3.90;1.90;;;;;;;;;;4969092;28;20044;-70
2023/09/06 12:36:29;;;;;;;1.90;1.83;;;;;;;;;;4968785;28;20109;-70
2023/09/06 12:38:55;;;;;;;3.40;2.10;;;;;;;;;;4935977;28;20043;-70
2023/09/06 12:41:21;;;;;;;3.53;2.30;;;;;;;;;;4968614;28;20117;-70
2023/09/06 12:43:47;;;;;;;3.88;2.40;;;;;;;;;;4951373;28;20065;-70
2023/09/06 12:46:13;;;;;;;2.30;2.13;;;;;;;;;;4970105;28;20043;-70
2023/09/06 12:48:42;;;;;;;3.15;2.20;;;;;;;;;;4970440;28;20070;-69
2023/09/06 12:51:07;;;;;;;2.30;2.20;;;;;;;;;;4955433;28;20030;-69
2023/09/06 12:53:33;;;;;;;3.30;2.35;;;;;;;;;;4974295;28;20057;-69
2023/09/06 12:56:00;;;;;;;3.42;2.00;;;;;;;;;;4974451;28;20092;-70
2023/09/06 12:58:26;;;;;;;4.15;2.33;;;;;;;;;;4973611;28;20031;-70
2023/09/06 13:00:54;;;;;;;2.38;2.17;;;;;;;;;;4974205;28;20379;-70
2023/09/06 13:03:23;;;;;;;13.30;2.50;;;;;;;;;;4974138;28;20185;-71
2023/09/06 13:05:49;;;;;;;7.30;2.50;;;;;;;;;;4956734;28;20134;-70
2023/09/06 13:08:15;;;;;;;2.45;1.83;;;;;;;;;;4956604;28;20530;-70
2023/09/06 13:10:40;;;;;;;2.58;2.03;;;;;;;;;;4956461;28;20127;-70
2023/09/06 13:13:07;;;;;;;2.10;2.00;;;;;;;;;;4974219;28;20613;-68
2023/09/06 13:15:33;;;;;;;1.95;1.67;;;;;;;;;;4940557;28;20038;-70
2023/09/06 13:17:59;;;;;;;8.35;2.22;;;;;;;;;;4974080;28;20527;-69
2023/09/06 13:20:25;;;;;;;3.25;2.08;;;;;;;;;;4973795;28;20092;-69
2023/09/06 13:22:51;;;;;;;6.22;2.20;;;;;;;;;;4956316;28;20134;-70
2023/09/06 13:25:18;;;;;;;2.00;1.42;;;;;;;;;;4974074;28;20031;-70
2023/09/06 13:27:44;;;;;;;3.58;1.80;;;;;;;;;;4973527;28;20042;-69
2023/09/06 13:30:10;;;;;;;4.07;1.80;;;;;;;;;;4924715;28;20275;-69
2023/09/06 13:32:37;;;;;;;2.63;1.52;;;;;;;;;;4956150;28;20069;-70
2023/09/06 13:35:04;;;;;;;2.30;1.80;;;;;;;;;;4956744;28;20038;-69
2023/09/06 13:37:32;;;;;;;3.33;2.30;;;;;;;;;;4956271;28;20034;-70
2023/09/06 13:39:58;;;;;;;2.08;1.48;;;;;;;;;;4974400;28;20142;-70
2023/09/06 13:42:24;;;;;;;6.90;2.08;;;;;;;;;;4957227;28;20396;-70
2023/09/06 13:44:50;;;;;;;2.20;1.77;;;;;;;;;;4924714;28;20109;-69
2023/09/06 13:47:20;;;;;;;3.03;2.10;;;;;;;;;;4973291;28;20093;-70
2023/09/06 13:49:46;;;;;;;3.47;2.20;;;;;;;;;;4955878;28;20035;-70
2023/09/06 13:52:11;;;;;;;4.10;2.67;;;;;;;;;;4955950;28;20046;-70
2023/09/06 13:54:37;;;;;;;2.45;2.20;;;;;;;;;;4955592;28;20121;-70
2023/09/06 13:57:04;;;;;;;5.68;2.50;;;;;;;;;;4973174;28;20495;-71
2023/09/06 13:59:33;;;;;;;4.60;2.50;;;;;;;;;;4955546;28;20039;-69
2023/09/06 14:01:59;;;;;;;4.53;2.53;;;;;;;;;;4972546;28;20042;-70
2023/09/06 14:04:25;;;;;;;2.65;2.08;;;;;;;;;;4973163;28;20035;-70
2023/09/06 14:06:54;;;;;;;9.48;1.73;;;;;;;;;;4972734;28;20035;-69
2023/09/06 14:09:22;;;;;;;2.00;1.80;;;;;;;;;;4973012;28;20093;-69
2023/09/06 14:11:48;;;;;;;4.70;1.70;;;;;;;;;;4939423;28;20053;-69
2023/09/06 14:14:15;;;;;;;2.72;1.95;;;;;;;;;;4972847;28;20039;-69
2023/09/06 14:16:43;;;;;;;1.90;1.80;;;;;;;;;;4939429;28;20074;-70
2023/09/06 14:19:09;;;;;;;13.60;2.13;;;;;;;;;;4973064;28;20047;-69
2023/09/06 14:21:38;;;;;;;2.08;1.88;;;;;;;;;;4955079;28;20254;-69
2023/09/06 14:24:04;;;;;;;3.47;1.95;;;;;;;;;;4972708;28;20042;-69
2023/09/06 14:26:30;;;;;;;11.35;3.35;;;;;;;;;;4972507;28;20046;-69
2023/09/06 14:28:57;;;;;;;8.20;2.08;;;;;;;;;;4972644;28;20051;-69
2023/09/06 14:31:23;;;;;;;6.82;2.47;;;;;;;;;;4972521;28;20050;-69
2023/09/06 14:33:52;;;;;;;18.77;2.40;;;;;;;;;;4972257;28;20046;-70
2023/09/06 14:36:19;;;;;;;5.80;2.00;;;;;;;;;;4955509;28;20046;-69
2023/09/06 14:38:45;;;;;;;12.50;2.30;;;;;;;;;;4972315;28;20042;-69
2023/09/06 14:41:11;;;;;;;7.38;2.45;;;;;;;;;;4972523;28;20051;-69
2023/09/06 14:43:36;;;;;;;20.40;2.30;;;;;;;;;;4972492;28;20031;-69
2023/09/06 14:46:03;;;;;;;4.00;2.72;;;;;;;;;;4972291;28;20038;-69
2023/09/06 14:48:29;;;;;;;4.25;2.55;;;;;;;;;;4954932;28;20038;-69
2023/09/06 14:50:59;;;;;;;8.52;2.08;;;;;;;;;;4954789;28;20046;-69
2023/09/06 14:53:25;;;;;;;10.52;3.85;;;;;;;;;;4955082;28;20037;-70
2023/09/06 14:55:51;;;;;;;10.80;2.83;;;;;;;;;;4954543;28;20046;-69
2023/09/06 14:58:17;;;;;;;7.20;2.30;;;;;;;;;;4971949;28;20027;-69
2023/09/06 15:00:43;;;;;;;7.38;2.08;;;;;;;;;;4971614;28;20105;-70
2023/09/06 15:03:10;;;;;;;7.47;1.88;;;;;;;;;;4971774;28;20662;-69
2023/09/06 15:05:38;;;;;;;8.95;1.98;;;;;;;;;;4971629;28;20046;-69
2023/09/06 15:08:04;;;;;;;5.43;1.98;;;;;;;;;;4971768;28;20085;-69
2023/09/06 15:10:31;;;;;;;7.95;2.38;;;;;;;;;;4971743;28;20046;-69
2023/09/06 15:13:00;;;;;;;20.48;2.47;;;;;;;;;;4970856;28;20125;-71
2023/09/06 15:15:27;;;;;;;17.27;2.90;;;;;;;;;;4955014;28;20045;-69
2023/09/06 15:17:53;;;;;;;14.20;2.60;;;;;;;;;;4954119;28;20089;-69
2023/09/06 15:20:19;;;;;;;22.85;2.53;;;;;;;;;;4938205;28;20027;-70
2023/09/06 15:22:45;;;;;;;11.23;2.47;;;;;;;;;;4971427;28;20290;-69